createdAt,value
2023-05-17T00:01:16.916Z,19.79
2023-05-17T00:03:44.518Z,19.78
2023-05-17T00:06:12.271Z,19.78
2023-05-17T00:08:40.210Z,19.76
2023-05-17T00:11:07.770Z,19.77
2023-05-17T00:13:35.938Z,19.77
2023-05-17T00:16:06.064Z,19.78
2023-05-17T00:18:33.895Z,19.77
2023-05-17T00:21:02.095Z,19.78
2023-05-17T00:23:29.532Z,19.79
2023-05-17T00:25:57.110Z,19.80
2023-05-17T00:28:24.702Z,19.79
2023-05-17T00:30:52.134Z,19.78
2023-05-17T00:33:19.692Z,19.77
2023-05-17T00:35:47.553Z,19.75
2023-05-17T00:38:15.114Z,19.74
2023-05-17T00:40:42.567Z,19.73
2023-05-17T00:43:10.024Z,19.71
2023-05-17T00:45:37.490Z,19.70
2023-05-17T00:48:06.203Z,19.67
2023-05-17T00:50:33.833Z,19.65
2023-05-17T00:53:01.501Z,19.61
2023-05-17T00:55:29.180Z,19.59
2023-05-17T00:57:57.062Z,19.56
2023-05-17T01:00:24.471Z,19.54
2023-05-17T01:02:52.072Z,19.52
2023-05-17T01:05:19.591Z,19.48
2023-05-17T01:07:48.477Z,19.44
2023-05-17T01:10:16.349Z,19.42
2023-05-17T01:12:56.511Z,19.42
2023-05-17T01:15:29.326Z,19.41
2023-05-17T01:18:21.022Z,19.39
2023-05-17T01:20:48.870Z,19.35
2023-05-17T01:23:35.070Z,19.33
2023-05-17T01:26:11.028Z,19.33
2023-05-17T01:28:38.909Z,19.30
2023-05-17T01:31:06.453Z,19.25
2023-05-17T01:33:34.105Z,19.22
2023-05-17T01:36:01.919Z,19.22
2023-05-17T01:38:29.640Z,19.22
2023-05-17T01:40:57.235Z,19.21
2023-05-17T01:43:49.948Z,19.21
2023-05-17T01:46:58.977Z,19.19
2023-05-17T01:49:33.090Z,19.19
2023-05-17T01:52:12.738Z,19.19
2023-05-17T01:55:25.484Z,19.19
2023-05-17T01:57:54.294Z,19.20
2023-05-17T02:00:22.734Z,19.19
2023-05-17T02:02:51.837Z,19.19
2023-05-17T02:05:20.330Z,19.19
2023-05-17T02:07:48.063Z,19.18
2023-05-17T02:10:15.733Z,19.16
2023-05-17T02:12:43.406Z,19.16
2023-05-17T02:15:12.402Z,19.12
2023-05-17T02:17:41.066Z,19.07
2023-05-17T02:20:09.438Z,19.04
2023-05-17T02:22:37.344Z,19.03
2023-05-17T02:25:06.265Z,19.01
2023-05-17T02:27:33.804Z,18.96
2023-05-17T02:30:02.465Z,18.93
2023-05-17T02:32:31.231Z,18.91
2023-05-17T02:34:58.911Z,18.90
2023-05-17T02:37:26.659Z,18.90
2023-05-17T02:39:54.009Z,18.93
2023-05-17T02:42:21.780Z,18.95
2023-05-17T02:44:53.112Z,18.98
2023-05-17T02:47:23.932Z,19.01
2023-05-17T02:49:52.128Z,19.02
2023-05-17T02:52:20.073Z,19.04
2023-05-17T02:54:48.400Z,19.05
2023-05-17T02:57:16.299Z,19.05
2023-05-17T02:59:44.209Z,19.06
2023-05-17T03:02:11.949Z,19.05
2023-05-17T03:04:39.813Z,19.04
2023-05-17T03:07:08.940Z,19.02
2023-05-17T03:09:37.821Z,19.00
2023-05-17T03:12:06.655Z,18.98
2023-05-17T03:14:34.774Z,18.97
2023-05-17T03:17:02.564Z,18.94
2023-05-17T03:19:31.166Z,18.94
2023-05-17T03:21:58.899Z,18.93
2023-05-17T03:24:26.966Z,18.92
2023-05-17T03:26:54.899Z,18.90
2023-05-17T03:29:23.108Z,18.89
2023-05-17T03:31:51.693Z,18.89
2023-05-17T03:34:19.554Z,18.91
2023-05-17T03:36:47.219Z,18.93
2023-05-17T03:39:15.087Z,18.95
2023-05-17T03:41:43.273Z,18.98
2023-05-17T03:44:11.331Z,18.99
2023-05-17T03:46:39.453Z,19.01
2023-05-17T03:49:07.210Z,19.01
2023-05-17T03:51:35.747Z,19.01
2023-05-17T03:54:03.554Z,19.02
2023-05-17T03:56:31.917Z,19.05
2023-05-17T03:58:59.413Z,19.07
2023-05-17T04:01:27.726Z,19.09
2023-05-17T04:03:55.333Z,19.15
2023-05-17T04:06:23.367Z,19.18
2023-05-17T04:08:51.634Z,19.20
2023-05-17T04:11:24.217Z,19.24
2023-05-17T04:13:52.180Z,19.28
2023-05-17T04:16:20.227Z,19.32
2023-05-17T04:18:48.008Z,19.38
2023-05-17T04:21:15.995Z,19.42
2023-05-17T04:23:43.784Z,19.45
2023-05-17T04:26:11.630Z,19.46
2023-05-17T04:28:40.510Z,19.48
2023-05-17T04:31:08.841Z,19.51
2023-05-17T04:33:37.337Z,19.55
2023-05-17T04:36:06.720Z,19.60
2023-05-17T04:38:35.144Z,19.66
2023-05-17T04:41:04.844Z,19.72
2023-05-17T04:43:33.869Z,19.78
2023-05-17T04:46:01.747Z,19.86
2023-05-17T04:48:31.463Z,19.96
2023-05-17T04:51:02.914Z,20.08
2023-05-17T04:53:30.918Z,20.17
2023-05-17T04:55:59.428Z,20.27
2023-05-17T04:58:27.081Z,20.35
2023-05-17T05:00:57.103Z,20.43
2023-05-17T05:03:24.930Z,20.48
2023-05-17T05:05:53.913Z,20.53
2023-05-17T05:08:21.829Z,20.59
2023-05-17T05:10:49.393Z,20.63
2023-05-17T05:13:17.764Z,20.67
2023-05-17T05:15:45.871Z,20.70
2023-05-17T05:18:13.573Z,20.74
2023-05-17T05:20:41.970Z,20.78
2023-05-17T05:23:10.557Z,20.79
2023-05-17T05:25:38.266Z,20.80
2023-05-17T05:28:08.041Z,20.81
2023-05-17T05:30:36.818Z,20.84
2023-05-17T05:33:05.319Z,20.88
2023-05-17T05:35:33.066Z,20.92
2023-05-17T05:38:00.698Z,20.98
2023-05-17T05:40:28.698Z,21.03
2023-05-17T05:42:56.668Z,21.08
2023-05-17T05:45:24.139Z,21.12
2023-05-17T05:47:54.247Z,21.17
2023-05-17T05:50:22.038Z,21.23
2023-05-17T05:52:49.903Z,21.27
2023-05-17T05:55:17.594Z,21.27
2023-05-17T05:57:46.113Z,21.25
2023-05-17T06:00:14.397Z,21.24
2023-05-17T06:02:41.997Z,21.24
2023-05-17T06:05:09.816Z,21.26
2023-05-17T06:07:37.376Z,21.28
2023-05-17T06:10:05.496Z,21.32
2023-05-17T06:12:35.680Z,21.37
2023-05-17T06:15:04.215Z,21.43
2023-05-17T06:17:31.863Z,21.52
2023-05-17T06:19:59.516Z,21.57
2023-05-17T06:22:27.105Z,21.64
2023-05-17T06:24:54.801Z,21.69
2023-05-17T06:27:22.337Z,21.72
2023-05-17T06:29:50.125Z,21.71
2023-05-17T06:32:17.675Z,21.73
2023-05-17T06:34:45.441Z,21.77
2023-05-17T06:37:13.511Z,21.82
2023-05-17T06:39:41.150Z,21.84
2023-05-17T06:42:09.179Z,21.88
2023-05-17T06:44:36.729Z,21.93
2023-05-17T06:47:04.657Z,22.01
2023-05-17T06:49:32.284Z,22.09
2023-05-17T06:52:03.778Z,22.16
2023-05-17T06:54:31.851Z,22.26
2023-05-17T06:57:03.258Z,22.35
2023-05-17T06:59:31.165Z,22.40
2023-05-17T07:02:00.897Z,22.49
2023-05-17T07:04:28.378Z,22.55
2023-05-17T07:06:57.688Z,22.59
2023-05-17T07:09:25.398Z,22.61
2023-05-17T07:11:53.760Z,22.63
2023-05-17T07:14:21.433Z,22.65
2023-05-17T07:16:49.609Z,22.72
2023-05-17T07:19:17.386Z,22.82
2023-05-17T07:21:45.700Z,22.92
2023-05-17T07:24:13.210Z,23.01
2023-05-17T07:26:40.777Z,23.10
2023-05-17T07:29:08.225Z,23.17
2023-05-17T07:31:38.504Z,23.20
2023-05-17T07:34:06.307Z,23.25
2023-05-17T07:36:34.408Z,23.33
2023-05-17T07:39:02.352Z,23.40
2023-05-17T07:41:30.015Z,23.49
2023-05-17T07:43:57.679Z,23.58
2023-05-17T07:46:26.048Z,23.67
2023-05-17T07:48:55.840Z,23.73
2023-05-17T07:51:26.445Z,23.80
2023-05-17T07:53:54.269Z,23.88
2023-05-17T07:56:22.034Z,23.98
2023-05-17T07:58:49.804Z,24.09
2023-05-17T08:01:17.482Z,24.18
2023-05-17T08:03:51.220Z,24.20
2023-05-17T08:06:19.055Z,24.22
2023-05-17T08:08:46.890Z,24.26
2023-05-17T08:11:14.862Z,24.28
2023-05-17T08:13:42.928Z,24.34
2023-05-17T08:16:14.181Z,24.39
2023-05-17T08:18:43.837Z,24.44
2023-05-17T08:21:11.813Z,24.44
2023-05-17T08:23:40.993Z,24.45
2023-05-17T08:26:08.401Z,24.44
2023-05-17T08:28:36.196Z,24.41
2023-05-17T08:31:04.734Z,24.38
2023-05-17T08:33:33.961Z,24.39
2023-05-17T08:36:05.543Z,24.43
2023-05-17T08:38:34.652Z,24.47
2023-05-17T08:41:03.513Z,24.51
2023-05-17T08:43:33.908Z,24.58
2023-05-17T08:46:04.051Z,24.66
2023-05-17T08:48:31.729Z,24.70
2023-05-17T08:51:00.437Z,24.77
2023-05-17T08:53:28.304Z,24.87
2023-05-17T08:55:59.410Z,24.98
2023-05-17T08:58:41.081Z,25.14
2023-05-17T09:01:19.920Z,25.32
2023-05-17T09:03:51.295Z,25.41
2023-05-17T09:06:21.814Z,25.47
2023-05-17T09:08:53.205Z,25.46
2023-05-17T09:11:28.821Z,25.39
2023-05-17T09:14:03.307Z,25.31
2023-05-17T09:16:35.410Z,25.31
2023-05-17T09:19:03.908Z,25.36
2023-05-17T09:21:31.848Z,25.41
2023-05-17T09:24:06.264Z,25.48
2023-05-17T09:26:40.629Z,25.58
2023-05-17T09:29:17.945Z,25.71
2023-05-17T09:31:45.696Z,25.85
2023-05-17T09:34:13.124Z,25.95
2023-05-17T09:36:42.981Z,26.04
2023-05-17T09:39:14.829Z,26.13
2023-05-17T09:41:48.263Z,26.22
2023-05-17T09:44:15.811Z,26.31
2023-05-17T09:46:45.926Z,26.41
2023-05-17T09:49:14.266Z,26.55
2023-05-17T09:51:46.171Z,26.67
2023-05-17T09:54:13.603Z,26.74
2023-05-17T09:56:40.575Z,26.81
2023-05-17T09:59:13.328Z,26.90
2023-05-17T10:01:41.707Z,26.97
2023-05-17T10:04:12.789Z,27.02
2023-05-17T10:06:46.493Z,27.05
2023-05-17T10:09:19.024Z,27.13
2023-05-17T10:11:46.940Z,27.18
2023-05-17T10:14:19.446Z,27.14
2023-05-17T10:16:47.333Z,27.15
2023-05-17T10:19:15.293Z,27.20
2023-05-17T10:21:43.603Z,27.22
2023-05-17T10:24:11.389Z,27.30
2023-05-17T10:26:38.911Z,27.37
2023-05-17T10:29:06.479Z,27.43
2023-05-17T10:31:34.432Z,27.49
2023-05-17T10:34:02.470Z,27.55
2023-05-17T10:36:30.415Z,27.58
2023-05-17T10:38:59.197Z,27.59
2023-05-17T10:41:28.082Z,27.57
2023-05-17T10:43:56.113Z,27.68
2023-05-17T10:46:23.979Z,27.83
2023-05-17T10:48:52.850Z,27.99
2023-05-17T10:51:24.766Z,28.17
2023-05-17T10:54:07.995Z,28.39
2023-05-17T10:56:35.610Z,28.59
2023-05-17T10:59:16.672Z,28.78
2023-05-17T11:01:59.951Z,29.07
2023-05-17T11:04:38.994Z,29.37
2023-05-17T11:07:17.580Z,29.58
2023-05-17T11:09:46.143Z,29.70
2023-05-17T11:12:14.444Z,29.83
2023-05-17T11:14:48.639Z,29.97
2023-05-17T11:17:18.184Z,30.10
2023-05-17T11:19:55.408Z,30.18
2023-05-17T11:23:02.718Z,30.36
2023-05-17T11:25:37.241Z,30.59
2023-05-17T11:28:23.234Z,30.90
2023-05-17T11:30:54.285Z,31.37
2023-05-17T11:33:33.169Z,31.80
2023-05-17T11:36:05.704Z,32.28
2023-05-17T11:38:34.822Z,32.61
2023-05-17T11:41:27.008Z,32.84
2023-05-17T11:43:55.698Z,33.16
2023-05-17T11:46:24.327Z,33.39
2023-05-17T11:48:53.364Z,33.67
2023-05-17T11:51:23.854Z,33.90
2023-05-17T11:53:55.763Z,34.03
2023-05-17T11:56:35.512Z,34.21
2023-05-17T11:59:10.723Z,34.43
2023-05-17T12:01:46.424Z,34.58
2023-05-17T12:04:14.179Z,34.72
2023-05-17T12:06:41.831Z,34.56
2023-05-17T12:09:11.527Z,34.41
2023-05-17T12:11:39.807Z,34.27
2023-05-17T12:14:07.732Z,34.22
2023-05-17T12:16:39.059Z,34.08
2023-05-17T12:19:07.946Z,33.81
2023-05-17T12:21:35.570Z,33.58
2023-05-17T12:24:03.434Z,33.38
2023-05-17T12:26:31.204Z,33.02
2023-05-17T12:29:00.187Z,32.80
2023-05-17T12:31:42.032Z,32.61
2023-05-17T12:34:09.701Z,32.36
2023-05-17T12:36:37.812Z,32.27
2023-05-17T12:39:08.957Z,32.10
2023-05-17T12:41:37.540Z,31.75
2023-05-17T12:46:41.296Z,31.40
2023-05-17T12:49:09.337Z,31.30
2023-05-17T12:51:44.928Z,31.07
2023-05-17T12:54:16.735Z,30.71
2023-05-17T12:56:45.039Z,30.48
2023-05-17T12:59:17.554Z,30.23
2023-05-17T13:01:49.553Z,29.96
2023-05-17T13:04:17.972Z,29.71
2023-05-17T13:06:52.254Z,29.59
2023-05-17T13:09:22.143Z,29.48
2023-05-17T13:11:54.128Z,29.42
2023-05-17T13:14:52.041Z,29.37
2023-05-17T13:17:27.574Z,29.27
2023-05-17T13:19:58.184Z,29.19
2023-05-17T13:22:26.320Z,29.17
2023-05-17T13:24:54.526Z,29.19
2023-05-17T13:27:22.288Z,29.30
2023-05-17T13:29:49.892Z,29.46
2023-05-17T13:32:17.509Z,29.61
2023-05-17T13:34:45.177Z,29.68
2023-05-17T13:37:13.106Z,29.67
2023-05-17T13:39:41.896Z,29.60
2023-05-17T13:42:11.219Z,29.39
2023-05-17T13:44:39.241Z,29.20
2023-05-17T13:47:07.192Z,29.08
2023-05-17T13:49:34.730Z,29.12
2023-05-17T13:52:02.497Z,29.36
2023-05-17T13:54:29.974Z,29.69
2023-05-17T13:56:58.013Z,29.93
2023-05-17T13:59:25.572Z,29.95
2023-05-17T14:01:54.007Z,30.08
2023-05-17T14:04:21.712Z,30.25
2023-05-17T14:06:50.691Z,30.24
2023-05-17T14:09:20.752Z,30.17
2023-05-17T14:11:48.697Z,30.05
2023-05-17T14:14:16.459Z,29.98
2023-05-17T14:16:44.246Z,29.90
2023-05-17T14:19:12.119Z,29.80
2023-05-17T14:21:40.055Z,29.64
2023-05-17T14:24:07.620Z,29.47
2023-05-17T14:26:35.315Z,29.30
2023-05-17T14:29:02.589Z,29.10
2023-05-17T14:31:30.527Z,28.90
2023-05-17T14:33:58.980Z,28.67
2023-05-17T14:36:26.852Z,28.53
2023-05-17T14:38:54.506Z,28.47
2023-05-17T14:41:22.829Z,28.36
2023-05-17T14:43:50.344Z,28.26
2023-05-17T14:46:18.104Z,28.17
2023-05-17T14:48:45.582Z,28.10
2023-05-17T14:51:13.743Z,28.02
2023-05-17T14:53:41.233Z,27.90
2023-05-17T14:56:10.329Z,27.83
2023-05-17T14:58:38.363Z,27.80
2023-05-17T15:01:07.089Z,27.75
2023-05-17T15:03:35.439Z,27.68
2023-05-17T15:06:06.960Z,27.56
2023-05-17T15:08:36.067Z,27.44
2023-05-17T15:11:03.727Z,27.35
2023-05-17T15:13:31.092Z,27.26
2023-05-17T15:15:59.332Z,27.19
2023-05-17T15:18:27.333Z,27.14
2023-05-17T15:20:54.991Z,27.14
2023-05-17T15:23:22.400Z,27.15
2023-05-17T15:25:50.309Z,27.12
2023-05-17T15:28:20.329Z,27.04
2023-05-17T15:30:48.196Z,26.90
2023-05-17T15:33:16.265Z,26.77
2023-05-17T15:35:45.085Z,26.64
2023-05-17T15:38:13.087Z,26.44
2023-05-17T15:40:40.397Z,26.24
2023-05-17T15:43:07.880Z,26.07
2023-05-17T15:45:35.702Z,25.90
2023-05-17T15:48:03.807Z,25.76
2023-05-17T15:50:31.751Z,25.61
2023-05-17T15:53:01.757Z,25.49
2023-05-17T15:55:30.366Z,25.39
2023-05-17T15:57:58.312Z,25.27
2023-05-17T16:00:25.917Z,25.12
2023-05-17T16:02:53.765Z,24.99
2023-05-17T16:05:21.810Z,24.91
2023-05-17T16:07:49.365Z,24.81
2023-05-17T16:10:17.850Z,24.72
2023-05-17T16:12:47.660Z,24.62
2023-05-17T16:15:15.563Z,24.52
2023-05-17T16:17:43.457Z,24.43
2023-05-17T16:20:12.334Z,24.34
2023-05-17T16:22:43.831Z,24.21
2023-05-17T16:25:13.296Z,24.08
2023-05-17T16:27:41.210Z,23.99
2023-05-17T16:30:09.304Z,23.92
2023-05-17T16:32:36.993Z,23.85
2023-05-17T16:35:04.847Z,23.75
2023-05-17T16:37:32.788Z,23.67
2023-05-17T16:40:00.648Z,23.61
2023-05-17T16:42:28.097Z,23.53
2023-05-17T16:44:55.864Z,23.44
2023-05-17T16:47:26.592Z,23.35
2023-05-17T16:49:57.673Z,23.29
2023-05-17T16:52:25.458Z,23.23
2023-05-17T16:54:53.368Z,23.17
2023-05-17T16:57:21.332Z,23.09
2023-05-17T16:59:49.000Z,23.03
2023-05-17T17:02:16.658Z,22.98
2023-05-17T17:04:44.624Z,22.93
2023-05-17T17:07:12.209Z,22.85
2023-05-17T17:09:39.793Z,22.72
2023-05-17T17:12:22.990Z,22.62
2023-05-17T17:14:52.098Z,22.49
2023-05-17T17:17:19.395Z,22.38
2023-05-17T17:19:46.975Z,22.28
2023-05-17T17:22:16.609Z,22.20
2023-05-17T17:24:44.773Z,22.11
2023-05-17T17:27:12.321Z,22.06
2023-05-17T17:29:39.975Z,22.00
2023-05-17T17:32:08.786Z,21.93
2023-05-17T17:34:36.448Z,21.89
2023-05-17T17:37:04.194Z,21.86
2023-05-17T17:39:32.368Z,21.80
2023-05-17T17:42:00.446Z,21.73
2023-05-17T17:44:28.478Z,21.64
2023-05-17T17:46:56.537Z,21.58
2023-05-17T17:49:24.563Z,21.54
2023-05-17T17:51:52.636Z,21.50
2023-05-17T17:54:20.905Z,21.46
2023-05-17T17:56:48.762Z,21.39
2023-05-17T17:59:17.347Z,21.32
2023-05-17T18:01:45.200Z,21.29
2023-05-17T18:04:14.840Z,21.25
2023-05-17T18:06:44.219Z,21.20
2023-05-17T18:09:11.991Z,21.16
2023-05-17T18:11:39.751Z,21.11
2023-05-17T18:14:09.097Z,21.09
2023-05-17T18:16:36.828Z,21.07
2023-05-17T18:19:04.829Z,21.03
2023-05-17T18:21:32.956Z,20.98
2023-05-17T18:24:00.824Z,20.93
2023-05-17T18:26:28.597Z,20.90
2023-05-17T18:28:56.249Z,20.87
2023-05-17T18:31:23.701Z,20.83
2023-05-17T18:33:54.278Z,20.80
2023-05-17T18:36:23.736Z,20.79
2023-05-17T18:38:52.755Z,20.76
2023-05-17T18:41:20.266Z,20.74
2023-05-17T18:43:48.152Z,20.70
2023-05-17T18:46:15.760Z,20.66
2023-05-17T18:48:43.582Z,20.62
2023-05-17T18:51:12.625Z,20.56
2023-05-17T18:53:40.057Z,20.49
2023-05-17T18:56:07.792Z,20.45
2023-05-17T18:58:35.458Z,20.44
2023-05-17T19:01:03.294Z,20.45
2023-05-17T19:03:31.532Z,20.42
2023-05-17T19:05:59.601Z,20.38
2023-05-17T19:08:28.255Z,20.32
2023-05-17T19:10:56.045Z,20.27
2023-05-17T19:13:23.708Z,20.27
2023-05-17T19:15:53.019Z,20.27
2023-05-17T19:18:21.070Z,20.24
2023-05-17T19:20:48.607Z,20.18
2023-05-17T19:23:16.274Z,20.13
2023-05-17T19:25:43.930Z,20.11
2023-05-17T19:28:11.812Z,20.10
2023-05-17T19:30:39.779Z,20.11
2023-05-17T19:33:07.615Z,20.12
2023-05-17T19:35:39.722Z,20.11
2023-05-17T19:38:07.570Z,20.10
2023-05-17T19:40:35.657Z,20.09
2023-05-17T19:43:03.299Z,20.02
2023-05-17T19:45:31.237Z,19.97
2023-05-17T19:47:58.976Z,19.96
2023-05-17T19:50:26.874Z,19.96
2023-05-17T19:52:54.999Z,19.92
2023-05-17T19:55:23.766Z,19.88
2023-05-17T19:57:51.722Z,19.87
2023-05-17T20:00:21.126Z,19.85
2023-05-17T20:02:48.851Z,19.82
2023-05-17T20:05:17.798Z,19.81
2023-05-17T20:07:46.116Z,19.80
2023-05-17T20:10:13.648Z,19.76
2023-05-17T20:12:42.199Z,19.76
2023-05-17T20:15:10.823Z,19.76
2023-05-17T20:17:40.322Z,19.77
2023-05-17T20:20:09.481Z,19.78
2023-05-17T20:22:38.274Z,19.77
2023-05-17T20:25:06.439Z,19.76
2023-05-17T20:27:34.303Z,19.75
2023-05-17T20:30:02.180Z,19.74
2023-05-17T20:32:29.975Z,19.70
2023-05-17T20:34:59.648Z,19.61
2023-05-17T20:37:27.169Z,19.54
2023-05-17T20:39:57.705Z,19.49
2023-05-17T20:42:26.824Z,19.43
2023-05-17T20:44:55.180Z,19.36
2023-05-17T20:47:22.878Z,19.31
2023-05-17T20:49:50.732Z,19.26
2023-05-17T20:52:27.796Z,19.26
2023-05-17T20:55:08.049Z,19.30
2023-05-17T20:57:36.143Z,19.33
2023-05-17T21:00:05.717Z,19.36
2023-05-17T21:02:33.633Z,19.37
2023-05-17T21:05:01.492Z,19.40
2023-05-17T21:07:30.478Z,19.44
2023-05-17T21:09:58.355Z,19.45
2023-05-17T21:12:26.015Z,19.45
2023-05-17T21:15:07.837Z,19.44
2023-05-17T21:17:41.549Z,19.41
2023-05-17T21:20:11.514Z,19.40
2023-05-17T21:22:39.083Z,19.40
2023-05-17T21:25:07.489Z,19.39
2023-05-17T21:27:35.360Z,19.39
2023-05-17T21:30:02.808Z,19.39
2023-05-17T21:32:31.098Z,19.38
2023-05-17T21:35:00.065Z,19.37
2023-05-17T21:37:27.710Z,19.36
2023-05-17T21:39:55.579Z,19.33
2023-05-17T21:42:23.261Z,19.31
2023-05-17T21:44:51.103Z,19.30
2023-05-17T21:47:18.866Z,19.29
2023-05-17T21:49:46.427Z,19.27
2023-05-17T21:52:14.098Z,19.27
2023-05-17T21:54:41.747Z,19.26
2023-05-17T21:57:09.306Z,19.24
2023-05-17T21:59:37.100Z,19.21
2023-05-17T22:02:04.856Z,19.19
2023-05-17T22:04:32.496Z,19.12
2023-05-17T22:06:59.960Z,19.06
2023-05-17T22:09:27.922Z,19.03
2023-05-17T22:11:59.094Z,19.01
2023-05-17T22:14:33.485Z,19.02
2023-05-17T22:17:01.276Z,19.03
2023-05-17T22:19:30.708Z,19.05
2023-05-17T22:21:58.420Z,19.05
2023-05-17T22:24:25.974Z,19.04
2023-05-17T22:26:53.635Z,19.03
2023-05-17T22:29:21.292Z,19.01
2023-05-17T22:31:50.425Z,19.00
2023-05-17T22:34:19.178Z,19.00
2023-05-17T22:36:46.864Z,18.99
2023-05-17T22:39:14.602Z,18.96
2023-05-17T22:41:42.372Z,18.94
2023-05-17T22:44:10.247Z,18.90
2023-05-17T22:46:38.954Z,18.86
2023-05-17T22:49:06.508Z,18.83
2023-05-17T22:51:35.752Z,18.79
2023-05-17T22:54:03.601Z,18.76
2023-05-17T22:56:31.043Z,18.72
2023-05-17T22:58:58.868Z,18.68
2023-05-17T23:01:26.839Z,18.65
2023-05-17T23:03:54.746Z,18.60
2023-05-17T23:06:22.310Z,18.55
2023-05-17T23:08:50.132Z,18.52
2023-05-17T23:11:18.405Z,18.49
2023-05-17T23:13:46.166Z,18.45
2023-05-17T23:16:14.470Z,18.42
2023-05-17T23:18:42.055Z,18.40
2023-05-17T23:21:09.969Z,18.39
2023-05-17T23:23:38.348Z,18.39
2023-05-17T23:26:06.420Z,18.37
2023-05-17T23:28:34.009Z,18.33
2023-05-17T23:31:02.624Z,18.29
2023-05-17T23:33:31.610Z,18.26
2023-05-17T23:35:59.240Z,18.24
2023-05-17T23:38:26.702Z,18.22
2023-05-17T23:40:54.305Z,18.22
2023-05-17T23:43:21.817Z,18.21
2023-05-17T23:45:49.648Z,18.21
2023-05-17T23:48:20.939Z,18.19
2023-05-17T23:50:48.563Z,18.18
2023-05-17T23:53:18.795Z,18.17
2023-05-17T23:55:46.894Z,18.15
2023-05-17T23:58:14.955Z,18.11
